sensor_id;sensor_type;location;lat;lon;timestamp;P1;durP1;ratioP1;P2;durP2;ratioP2
40322;SDS011;26030;51.164;17.100;2023-12-28T00:00:00;16.00;;;10.50;;
40322;SDS011;26030;51.164;17.100;2023-12-28T00:05:06;15.40;;;10.70;;
40322;SDS011;26030;51.164;17.100;2023-12-28T00:10:11;14.40;;;9.60;;
40322;SDS011;26030;51.164;17.100;2023-12-28T00:15:15;15.00;;;10.00;;
40322;SDS011;26030;51.164;17.100;2023-12-28T00:20:20;13.90;;;9.70;;
40322;SDS011;26030;51.164;17.100;2023-12-28T00:25:27;15.60;;;10.10;;
40322;SDS011;26030;51.164;17.100;2023-12-28T00:30:32;15.30;;;10.40;;
40322;SDS011;26030;51.164;17.100;2023-12-28T00:35:36;15.30;;;9.80;;
40322;SDS011;26030;51.164;17.100;2023-12-28T00:40:41;14.40;;;9.20;;
40322;SDS011;26030;51.164;17.100;2023-12-28T00:45:45;11.90;;;9.60;;
40322;SDS011;26030;51.164;17.100;2023-12-28T00:50:50;11.70;;;9.00;;
40322;SDS011;26030;51.164;17.100;2023-12-28T00:55:55;12.80;;;8.70;;
40322;SDS011;26030;51.164;17.100;2023-12-28T01:00:59;14.40;;;8.70;;
40322;SDS011;26030;51.164;17.100;2023-12-28T01:06:05;13.90;;;9.30;;
40322;SDS011;26030;51.164;17.100;2023-12-28T01:11:11;12.30;;;9.50;;
40322;SDS011;26030;51.164;17.100;2023-12-28T01:16:16;13.00;;;9.40;;
40322;SDS011;26030;51.164;17.100;2023-12-28T01:21:21;12.50;;;9.20;;
40322;SDS011;26030;51.164;17.100;2023-12-28T01:26:26;13.60;;;9.00;;
40322;SDS011;26030;51.164;17.100;2023-12-28T01:31:30;12.00;;;9.40;;
40322;SDS011;26030;51.164;17.100;2023-12-28T01:36:35;12.40;;;8.70;;
40322;SDS011;26030;51.164;17.100;2023-12-28T01:41:39;11.00;;;8.70;;
40322;SDS011;26030;51.164;17.100;2023-12-28T01:46:43;12.50;;;9.60;;
40322;SDS011;26030;51.164;17.100;2023-12-28T01:51:48;9.90;;;8.10;;
40322;SDS011;26030;51.164;17.100;2023-12-28T01:56:54;10.70;;;8.30;;
40322;SDS011;26030;51.164;17.100;2023-12-28T02:01:59;12.30;;;8.80;;
40322;SDS011;26030;51.164;17.100;2023-12-28T02:07:04;11.30;;;8.50;;
40322;SDS011;26030;51.164;17.100;2023-12-28T02:12:09;10.80;;;8.40;;
40322;SDS011;26030;51.164;17.100;2023-12-28T02:17:24;11.10;;;8.50;;
40322;SDS011;26030;51.164;17.100;2023-12-28T02:22:33;11.20;;;8.60;;
40322;SDS011;26030;51.164;17.100;2023-12-28T02:27:41;12.60;;;8.60;;
40322;SDS011;26030;51.164;17.100;2023-12-28T02:38:13;12.00;;;9.20;;
40322;SDS011;26030;51.164;17.100;2023-12-28T02:43:19;12.10;;;8.20;;
40322;SDS011;26030;51.164;17.100;2023-12-28T02:48:24;11.70;;;8.90;;
40322;SDS011;26030;51.164;17.100;2023-12-28T02:53:30;15.30;;;9.10;;
40322;SDS011;26030;51.164;17.100;2023-12-28T02:58:34;9.90;;;8.40;;
40322;SDS011;26030;51.164;17.100;2023-12-28T03:03:40;11.40;;;8.60;;
40322;SDS011;26030;51.164;17.100;2023-12-28T03:08:45;10.90;;;8.30;;
40322;SDS011;26030;51.164;17.100;2023-12-28T03:13:49;10.50;;;8.20;;
40322;SDS011;26030;51.164;17.100;2023-12-28T03:18:54;10.90;;;7.60;;
40322;SDS011;26030;51.164;17.100;2023-12-28T03:24:00;11.00;;;8.80;;
40322;SDS011;26030;51.164;17.100;2023-12-28T03:29:08;10.40;;;8.30;;
40322;SDS011;26030;51.164;17.100;2023-12-28T03:34:13;12.70;;;8.10;;
40322;SDS011;26030;51.164;17.100;2023-12-28T03:39:17;10.60;;;8.70;;
40322;SDS011;26030;51.164;17.100;2023-12-28T03:44:22;12.30;;;8.50;;
40322;SDS011;26030;51.164;17.100;2023-12-28T03:49:27;9.50;;;7.90;;
40322;SDS011;26030;51.164;17.100;2023-12-28T03:54:32;11.00;;;7.50;;
40322;SDS011;26030;51.164;17.100;2023-12-28T03:59:37;10.80;;;7.80;;
40322;SDS011;26030;51.164;17.100;2023-12-28T04:04:41;8.50;;;7.50;;
40322;SDS011;26030;51.164;17.100;2023-12-28T04:09:48;10.10;;;7.50;;
40322;SDS011;26030;51.164;17.100;2023-12-28T04:14:52;9.60;;;8.40;;
40322;SDS011;26030;51.164;17.100;2023-12-28T04:19:57;10.10;;;7.70;;
40322;SDS011;26030;51.164;17.100;2023-12-28T04:25:02;11.00;;;8.10;;
40322;SDS011;26030;51.164;17.100;2023-12-28T04:30:07;8.60;;;7.70;;
40322;SDS011;26030;51.164;17.100;2023-12-28T04:35:11;8.70;;;7.80;;
40322;SDS011;26030;51.164;17.100;2023-12-28T04:40:16;9.60;;;6.80;;
40322;SDS011;26030;51.164;17.100;2023-12-28T04:45:21;10.40;;;8.30;;
40322;SDS011;26030;51.164;17.100;2023-12-28T04:50:27;10.10;;;8.00;;
40322;SDS011;26030;51.164;17.100;2023-12-28T04:55:32;9.50;;;7.50;;
40322;SDS011;26030;51.164;17.100;2023-12-28T05:00:37;10.10;;;7.90;;
40322;SDS011;26030;51.164;17.100;2023-12-28T05:05:46;8.30;;;7.40;;
40322;SDS011;26030;51.164;17.100;2023-12-28T05:10:52;9.50;;;7.00;;
40322;SDS011;26030;51.164;17.100;2023-12-28T05:15:57;8.80;;;7.10;;
40322;SDS011;26030;51.164;17.100;2023-12-28T05:21:02;9.60;;;7.60;;
40322;SDS011;26030;51.164;17.100;2023-12-28T05:26:07;8.70;;;7.00;;
40322;SDS011;26030;51.164;17.100;2023-12-28T05:31:11;7.70;;;6.90;;
40322;SDS011;26030;51.164;17.100;2023-12-28T05:36:17;8.00;;;7.10;;
40322;SDS011;26030;51.164;17.100;2023-12-28T05:41:22;8.30;;;6.70;;
40322;SDS011;26030;51.164;17.100;2023-12-28T05:46:26;7.20;;;6.40;;
40322;SDS011;26030;51.164;17.100;2023-12-28T05:51:37;6.80;;;6.20;;
40322;SDS011;26030;51.164;17.100;2023-12-28T05:56:46;10.50;;;6.90;;
40322;SDS011;26030;51.164;17.100;2023-12-28T06:01:51;9.90;;;6.80;;
40322;SDS011;26030;51.164;17.100;2023-12-28T06:06:56;7.00;;;6.30;;
40322;SDS011;26030;51.164;17.100;2023-12-28T06:12:01;8.20;;;6.40;;
40322;SDS011;26030;51.164;17.100;2023-12-28T06:17:06;8.50;;;6.90;;
40322;SDS011;26030;51.164;17.100;2023-12-28T06:22:10;8.20;;;6.60;;
40322;SDS011;26030;51.164;17.100;2023-12-28T06:27:15;7.60;;;6.20;;
40322;SDS011;26030;51.164;17.100;2023-12-28T06:32:19;7.70;;;6.40;;
40322;SDS011;26030;51.164;17.100;2023-12-28T06:37:27;7.70;;;6.80;;
40322;SDS011;26030;51.164;17.100;2023-12-28T06:42:31;8.90;;;7.20;;
40322;SDS011;26030;51.164;17.100;2023-12-28T06:47:35;14.50;;;8.20;;
40322;SDS011;26030;51.164;17.100;2023-12-28T06:52:40;11.40;;;9.20;;
40322;SDS011;26030;51.164;17.100;2023-12-28T06:57:45;13.00;;;9.10;;
40322;SDS011;26030;51.164;17.100;2023-12-28T07:02:49;12.20;;;9.50;;
40322;SDS011;26030;51.164;17.100;2023-12-28T07:07:54;11.70;;;9.30;;
40322;SDS011;26030;51.164;17.100;2023-12-28T07:12:59;11.90;;;9.20;;
40322;SDS011;26030;51.164;17.100;2023-12-28T07:18:06;13.40;;;9.90;;
40322;SDS011;26030;51.164;17.100;2023-12-28T07:23:11;13.00;;;9.70;;
40322;SDS011;26030;51.164;17.100;2023-12-28T07:28:16;12.70;;;9.70;;
40322;SDS011;26030;51.164;17.100;2023-12-28T07:33:20;12.60;;;9.80;;
40322;SDS011;26030;51.164;17.100;2023-12-28T07:38:25;15.00;;;8.90;;
40322;SDS011;26030;51.164;17.100;2023-12-28T07:43:29;12.20;;;9.60;;
40322;SDS011;26030;51.164;17.100;2023-12-28T07:48:34;13.50;;;9.80;;
40322;SDS011;26030;51.164;17.100;2023-12-28T07:53:38;12.70;;;9.20;;
40322;SDS011;26030;51.164;17.100;2023-12-28T07:58:43;9.50;;;8.30;;
40322;SDS011;26030;51.164;17.100;2023-12-28T08:03:47;12.00;;;8.30;;
40322;SDS011;26030;51.164;17.100;2023-12-28T08:08:52;10.20;;;8.10;;
40322;SDS011;26030;51.164;17.100;2023-12-28T08:13:57;11.50;;;8.30;;
40322;SDS011;26030;51.164;17.100;2023-12-28T08:19:02;11.70;;;8.40;;
40322;SDS011;26030;51.164;17.100;2023-12-28T08:24:07;12.20;;;8.00;;
40322;SDS011;26030;51.164;17.100;2023-12-28T08:29:11;12.70;;;7.80;;
40322;SDS011;26030;51.164;17.100;2023-12-28T08:34:16;13.50;;;7.90;;
40322;SDS011;26030;51.164;17.100;2023-12-28T08:39:20;13.60;;;8.80;;
40322;SDS011;26030;51.164;17.100;2023-12-28T08:44:24;10.80;;;7.90;;
40322;SDS011;26030;51.164;17.100;2023-12-28T08:49:29;10.80;;;7.90;;
40322;SDS011;26030;51.164;17.100;2023-12-28T08:54:34;10.80;;;7.70;;
40322;SDS011;26030;51.164;17.100;2023-12-28T08:59:39;11.10;;;7.20;;
40322;SDS011;26030;51.164;17.100;2023-12-28T09:04:43;12.50;;;6.80;;
40322;SDS011;26030;51.164;17.100;2023-12-28T09:09:48;7.30;;;6.60;;
40322;SDS011;26030;51.164;17.100;2023-12-28T09:14:52;9.00;;;6.90;;
40322;SDS011;26030;51.164;17.100;2023-12-28T09:19:56;10.40;;;7.50;;
40322;SDS011;26030;51.164;17.100;2023-12-28T09:25:03;10.90;;;6.90;;
40322;SDS011;26030;51.164;17.100;2023-12-28T09:30:09;7.80;;;6.40;;
40322;SDS011;26030;51.164;17.100;2023-12-28T09:35:14;11.00;;;7.60;;
40322;SDS011;26030;51.164;17.100;2023-12-28T09:40:18;12.50;;;7.00;;
40322;SDS011;26030;51.164;17.100;2023-12-28T09:45:22;7.20;;;6.00;;
40322;SDS011;26030;51.164;17.100;2023-12-28T09:50:29;10.20;;;6.60;;
40322;SDS011;26030;51.164;17.100;2023-12-28T09:55:33;14.60;;;6.50;;
40322;SDS011;26030;51.164;17.100;2023-12-28T10:00:38;13.30;;;6.90;;
40322;SDS011;26030;51.164;17.100;2023-12-28T10:05:47;13.00;;;5.50;;
40322;SDS011;26030;51.164;17.100;2023-12-28T10:10:52;11.10;;;5.70;;
40322;SDS011;26030;51.164;17.100;2023-12-28T10:15:59;9.80;;;5.50;;
40322;SDS011;26030;51.164;17.100;2023-12-28T10:21:03;10.80;;;6.20;;
40322;SDS011;26030;51.164;17.100;2023-12-28T10:26:08;13.00;;;5.40;;
40322;SDS011;26030;51.164;17.100;2023-12-28T10:31:14;14.50;;;6.30;;
40322;SDS011;26030;51.164;17.100;2023-12-28T10:36:19;11.50;;;6.50;;
40322;SDS011;26030;51.164;17.100;2023-12-28T10:41:27;10.20;;;6.50;;
40322;SDS011;26030;51.164;17.100;2023-12-28T10:46:40;15.10;;;6.80;;
40322;SDS011;26030;51.164;17.100;2023-12-28T10:51:51;10.50;;;7.40;;
40322;SDS011;26030;51.164;17.100;2023-12-28T10:57:01;10.50;;;8.20;;
40322;SDS011;26030;51.164;17.100;2023-12-28T11:07:18;11.40;;;7.10;;
40322;SDS011;26030;51.164;17.100;2023-12-28T11:12:23;9.70;;;7.50;;
40322;SDS011;26030;51.164;17.100;2023-12-28T11:17:30;10.20;;;7.70;;
40322;SDS011;26030;51.164;17.100;2023-12-28T11:22:35;11.70;;;9.00;;
40322;SDS011;26030;51.164;17.100;2023-12-28T11:27:40;10.20;;;8.70;;
40322;SDS011;26030;51.164;17.100;2023-12-28T11:32:46;10.00;;;8.70;;
40322;SDS011;26030;51.164;17.100;2023-12-28T11:37:51;15.10;;;9.30;;
40322;SDS011;26030;51.164;17.100;2023-12-28T11:42:58;11.20;;;8.60;;
40322;SDS011;26030;51.164;17.100;2023-12-28T11:48:03;11.00;;;9.00;;
40322;SDS011;26030;51.164;17.100;2023-12-28T11:53:08;13.90;;;8.90;;
40322;SDS011;26030;51.164;17.100;2023-12-28T11:58:12;12.50;;;8.80;;
40322;SDS011;26030;51.164;17.100;2023-12-28T12:03:18;14.50;;;8.10;;
40322;SDS011;26030;51.164;17.100;2023-12-28T12:08:25;9.40;;;8.00;;
40322;SDS011;26030;51.164;17.100;2023-12-28T12:13:30;10.40;;;8.10;;
40322;SDS011;26030;51.164;17.100;2023-12-28T12:18:35;12.50;;;8.50;;
40322;SDS011;26030;51.164;17.100;2023-12-28T12:23:40;18.70;;;13.90;;
40322;SDS011;26030;51.164;17.100;2023-12-28T12:28:45;12.70;;;10.40;;
40322;SDS011;26030;51.164;17.100;2023-12-28T12:33:51;13.80;;;9.40;;
40322;SDS011;26030;51.164;17.100;2023-12-28T12:38:56;12.20;;;10.70;;
40322;SDS011;26030;51.164;17.100;2023-12-28T12:44:01;10.60;;;9.20;;
40322;SDS011;26030;51.164;17.100;2023-12-28T12:49:08;14.40;;;9.70;;
40322;SDS011;26030;51.164;17.100;2023-12-28T12:54:13;17.10;;;14.70;;
40322;SDS011;26030;51.164;17.100;2023-12-28T12:59:24;20.30;;;18.30;;
40322;SDS011;26030;51.164;17.100;2023-12-28T13:04:30;17.90;;;16.00;;
40322;SDS011;26030;51.164;17.100;2023-12-28T13:09:35;17.70;;;15.70;;
40322;SDS011;26030;51.164;17.100;2023-12-28T13:14:39;72.50;;;33.50;;
40322;SDS011;26030;51.164;17.100;2023-12-28T13:19:44;68.80;;;31.50;;
40322;SDS011;26030;51.164;17.100;2023-12-28T13:24:49;64.30;;;30.60;;
40322;SDS011;26030;51.164;17.100;2023-12-28T13:29:55;61.30;;;27.70;;
40322;SDS011;26030;51.164;17.100;2023-12-28T13:35:00;64.60;;;26.70;;
40322;SDS011;26030;51.164;17.100;2023-12-28T13:40:07;56.10;;;25.60;;
40322;SDS011;26030;51.164;17.100;2023-12-28T13:45:12;54.30;;;24.40;;
40322;SDS011;26030;51.164;17.100;2023-12-28T13:50:17;49.20;;;24.00;;
40322;SDS011;26030;51.164;17.100;2023-12-28T13:55:21;51.10;;;23.50;;
40322;SDS011;26030;51.164;17.100;2023-12-28T14:00:26;40.10;;;22.70;;
40322;SDS011;26030;51.164;17.100;2023-12-28T14:05:31;45.90;;;22.10;;
40322;SDS011;26030;51.164;17.100;2023-12-28T14:10:39;70.40;;;29.40;;
40322;SDS011;26030;51.164;17.100;2023-12-28T14:15:43;48.30;;;24.40;;
40322;SDS011;26030;51.164;17.100;2023-12-28T14:20:48;49.80;;;22.10;;
40322;SDS011;26030;51.164;17.100;2023-12-28T14:25:53;47.00;;;23.30;;
40322;SDS011;26030;51.164;17.100;2023-12-28T14:30:59;44.80;;;21.50;;
40322;SDS011;26030;51.164;17.100;2023-12-28T14:36:06;41.00;;;20.40;;
40322;SDS011;26030;51.164;17.100;2023-12-28T14:41:12;47.40;;;20.90;;
40322;SDS011;26030;51.164;17.100;2023-12-28T14:46:17;42.50;;;19.90;;
40322;SDS011;26030;51.164;17.100;2023-12-28T14:51:22;40.70;;;18.70;;
40322;SDS011;26030;51.164;17.100;2023-12-28T14:56:26;35.60;;;18.40;;
40322;SDS011;26030;51.164;17.100;2023-12-28T15:01:49;36.80;;;17.90;;
40322;SDS011;26030;51.164;17.100;2023-12-28T15:06:53;31.80;;;17.00;;
40322;SDS011;26030;51.164;17.100;2023-12-28T15:11:59;25.30;;;14.80;;
40322;SDS011;26030;51.164;17.100;2023-12-28T15:17:05;27.00;;;15.50;;
40322;SDS011;26030;51.164;17.100;2023-12-28T15:22:14;28.50;;;15.70;;
40322;SDS011;26030;51.164;17.100;2023-12-28T15:27:19;26.40;;;14.50;;
40322;SDS011;26030;51.164;17.100;2023-12-28T15:32:24;24.00;;;12.70;;
40322;SDS011;26030;51.164;17.100;2023-12-28T15:37:28;23.10;;;13.60;;
40322;SDS011;26030;51.164;17.100;2023-12-28T15:42:35;26.70;;;13.50;;
40322;SDS011;26030;51.164;17.100;2023-12-28T15:47:39;21.50;;;13.20;;
40322;SDS011;26030;51.164;17.100;2023-12-28T15:52:44;19.30;;;12.60;;
40322;SDS011;26030;51.164;17.100;2023-12-28T15:57:49;19.10;;;12.10;;
40322;SDS011;26030;51.164;17.100;2023-12-28T16:02:56;20.90;;;12.30;;
40322;SDS011;26030;51.164;17.100;2023-12-28T16:08:00;18.70;;;12.20;;
40322;SDS011;26030;51.164;17.100;2023-12-28T16:13:06;21.60;;;11.90;;
40322;SDS011;26030;51.164;17.100;2023-12-28T16:18:12;16.80;;;11.30;;
40322;SDS011;26030;51.164;17.100;2023-12-28T16:23:18;19.80;;;11.70;;
40322;SDS011;26030;51.164;17.100;2023-12-28T16:28:23;17.50;;;10.50;;
40322;SDS011;26030;51.164;17.100;2023-12-28T16:33:28;15.10;;;11.40;;
40322;SDS011;26030;51.164;17.100;2023-12-28T16:38:33;16.40;;;10.90;;
40322;SDS011;26030;51.164;17.100;2023-12-28T16:43:39;19.00;;;11.30;;
40322;SDS011;26030;51.164;17.100;2023-12-28T16:48:45;15.10;;;10.60;;
40322;SDS011;26030;51.164;17.100;2023-12-28T16:53:50;16.30;;;11.60;;
40322;SDS011;26030;51.164;17.100;2023-12-28T16:58:55;19.10;;;12.10;;
40322;SDS011;26030;51.164;17.100;2023-12-28T17:04:00;15.50;;;10.40;;
40322;SDS011;26030;51.164;17.100;2023-12-28T17:09:05;15.40;;;11.10;;
40322;SDS011;26030;51.164;17.100;2023-12-28T17:14:14;13.10;;;10.30;;
40322;SDS011;26030;51.164;17.100;2023-12-28T17:19:20;14.40;;;10.70;;
40322;SDS011;26030;51.164;17.100;2023-12-28T17:24:27;15.20;;;11.10;;
40322;SDS011;26030;51.164;17.100;2023-12-28T17:29:36;14.10;;;10.10;;
40322;SDS011;26030;51.164;17.100;2023-12-28T17:34:42;17.70;;;10.70;;
40322;SDS011;26030;51.164;17.100;2023-12-28T17:39:51;17.10;;;10.90;;
40322;SDS011;26030;51.164;17.100;2023-12-28T17:44:58;15.30;;;11.30;;
40322;SDS011;26030;51.164;17.100;2023-12-28T17:50:04;16.20;;;12.30;;
40322;SDS011;26030;51.164;17.100;2023-12-28T17:55:08;19.30;;;12.20;;
40322;SDS011;26030;51.164;17.100;2023-12-28T18:00:14;18.70;;;13.10;;
40322;SDS011;26030;51.164;17.100;2023-12-28T18:05:21;16.60;;;12.20;;
40322;SDS011;26030;51.164;17.100;2023-12-28T18:10:25;18.00;;;11.80;;
40322;SDS011;26030;51.164;17.100;2023-12-28T18:15:31;19.20;;;13.00;;
40322;SDS011;26030;51.164;17.100;2023-12-28T18:20:44;16.80;;;12.60;;
40322;SDS011;26030;51.164;17.100;2023-12-28T18:25:49;18.00;;;12.70;;
40322;SDS011;26030;51.164;17.100;2023-12-28T18:30:54;17.10;;;12.20;;
40322;SDS011;26030;51.164;17.100;2023-12-28T18:36:00;27.10;;;11.90;;
40322;SDS011;26030;51.164;17.100;2023-12-28T18:41:06;20.90;;;12.10;;
40322;SDS011;26030;51.164;17.100;2023-12-28T18:46:11;31.20;;;13.00;;
40322;SDS011;26030;51.164;17.100;2023-12-28T18:51:15;19.20;;;12.80;;
40322;SDS011;26030;51.164;17.100;2023-12-28T18:56:20;16.80;;;12.30;;
40322;SDS011;26030;51.164;17.100;2023-12-28T19:01:24;21.20;;;12.10;;
40322;SDS011;26030;51.164;17.100;2023-12-28T19:06:30;23.10;;;12.40;;
40322;SDS011;26030;51.164;17.100;2023-12-28T19:11:34;21.90;;;12.80;;
40322;SDS011;26030;51.164;17.100;2023-12-28T19:16:39;18.80;;;13.80;;
40322;SDS011;26030;51.164;17.100;2023-12-28T19:21:45;20.90;;;13.80;;
40322;SDS011;26030;51.164;17.100;2023-12-28T19:26:50;21.20;;;14.20;;
40322;SDS011;26030;51.164;17.100;2023-12-28T19:31:55;20.80;;;13.60;;
40322;SDS011;26030;51.164;17.100;2023-12-28T19:36:59;23.00;;;13.50;;
40322;SDS011;26030;51.164;17.100;2023-12-28T19:42:14;19.50;;;14.10;;
40322;SDS011;26030;51.164;17.100;2023-12-28T19:47:19;18.90;;;13.10;;
40322;SDS011;26030;51.164;17.100;2023-12-28T19:52:23;20.30;;;14.20;;
40322;SDS011;26030;51.164;17.100;2023-12-28T19:57:28;21.60;;;13.70;;
40322;SDS011;26030;51.164;17.100;2023-12-28T20:02:32;17.90;;;12.60;;
40322;SDS011;26030;51.164;17.100;2023-12-28T20:07:36;21.80;;;14.60;;
40322;SDS011;26030;51.164;17.100;2023-12-28T20:12:42;16.40;;;12.40;;
40322;SDS011;26030;51.164;17.100;2023-12-28T20:17:46;18.10;;;13.90;;
40322;SDS011;26030;51.164;17.100;2023-12-28T20:22:51;20.20;;;14.20;;
40322;SDS011;26030;51.164;17.100;2023-12-28T20:27:55;22.60;;;14.10;;
40322;SDS011;26030;51.164;17.100;2023-12-28T20:33:02;20.30;;;14.20;;
40322;SDS011;26030;51.164;17.100;2023-12-28T20:38:07;29.70;;;14.60;;
40322;SDS011;26030;51.164;17.100;2023-12-28T20:43:11;23.40;;;15.00;;
40322;SDS011;26030;51.164;17.100;2023-12-28T20:48:16;20.90;;;14.80;;
40322;SDS011;26030;51.164;17.100;2023-12-28T20:53:21;23.90;;;14.50;;
40322;SDS011;26030;51.164;17.100;2023-12-28T20:58:25;24.50;;;14.00;;
40322;SDS011;26030;51.164;17.100;2023-12-28T21:03:30;23.90;;;14.70;;
40322;SDS011;26030;51.164;17.100;2023-12-28T21:08:37;19.70;;;13.80;;
40322;SDS011;26030;51.164;17.100;2023-12-28T21:13:42;24.60;;;15.10;;
40322;SDS011;26030;51.164;17.100;2023-12-28T21:18:46;22.70;;;15.10;;
40322;SDS011;26030;51.164;17.100;2023-12-28T21:23:52;23.10;;;15.30;;
40322;SDS011;26030;51.164;17.100;2023-12-28T21:28:56;19.40;;;14.60;;
40322;SDS011;26030;51.164;17.100;2023-12-28T21:34:01;20.90;;;14.70;;
40322;SDS011;26030;51.164;17.100;2023-12-28T21:39:05;21.70;;;14.70;;
40322;SDS011;26030;51.164;17.100;2023-12-28T21:44:10;19.70;;;14.60;;
40322;SDS011;26030;51.164;17.100;2023-12-28T21:49:16;19.30;;;13.70;;
40322;SDS011;26030;51.164;17.100;2023-12-28T21:54:21;18.80;;;13.50;;
40322;SDS011;26030;51.164;17.100;2023-12-28T21:59:25;20.10;;;13.70;;
40322;SDS011;26030;51.164;17.100;2023-12-28T22:04:29;18.40;;;14.00;;
40322;SDS011;26030;51.164;17.100;2023-12-28T22:09:34;26.10;;;15.20;;
40322;SDS011;26030;51.164;17.100;2023-12-28T22:14:41;21.60;;;13.80;;
40322;SDS011;26030;51.164;17.100;2023-12-28T22:19:45;25.70;;;13.90;;
40322;SDS011;26030;51.164;17.100;2023-12-28T22:24:50;21.10;;;12.70;;
40322;SDS011;26030;51.164;17.100;2023-12-28T22:29:54;20.00;;;13.50;;
40322;SDS011;26030;51.164;17.100;2023-12-28T22:34:59;19.10;;;13.50;;
40322;SDS011;26030;51.164;17.100;2023-12-28T22:40:05;17.40;;;13.50;;
40322;SDS011;26030;51.164;17.100;2023-12-28T22:45:11;21.00;;;14.00;;
40322;SDS011;26030;51.164;17.100;2023-12-28T22:50:17;15.90;;;13.20;;
40322;SDS011;26030;51.164;17.100;2023-12-28T22:55:22;18.60;;;13.30;;
40322;SDS011;26030;51.164;17.100;2023-12-28T23:00:28;18.10;;;13.40;;
40322;SDS011;26030;51.164;17.100;2023-12-28T23:05:45;16.90;;;13.30;;
40322;SDS011;26030;51.164;17.100;2023-12-28T23:10:51;20.80;;;13.60;;
40322;SDS011;26030;51.164;17.100;2023-12-28T23:15:58;15.90;;;12.20;;
40322;SDS011;26030;51.164;17.100;2023-12-28T23:21:05;19.50;;;12.90;;
40322;SDS011;26030;51.164;17.100;2023-12-28T23:26:18;17.50;;;12.40;;
40322;SDS011;26030;51.164;17.100;2023-12-28T23:31:23;15.30;;;11.70;;
40322;SDS011;26030;51.164;17.100;2023-12-28T23:36:28;20.60;;;12.90;;
40322;SDS011;26030;51.164;17.100;2023-12-28T23:41:32;16.70;;;12.10;;
40322;SDS011;26030;51.164;17.100;2023-12-28T23:46:37;16.70;;;12.50;;
40322;SDS011;26030;51.164;17.100;2023-12-28T23:51:42;14.30;;;11.80;;
40322;SDS011;26030;51.164;17.100;2023-12-28T23:56:46;15.80;;;11.30;;
